Time;durP1;ratioP1;P1;durP2;ratioP2;P2;SDS_P1;SDS_P2;PMS_P1;PMS_P2;Temp;Humidity;BMP_temperature;BMP_pressure;BME280_temperature;BME280_humidity;BME280_pressure;Samples;Min_cycle;Max_cycle;Signal;HPM_P1;HPM_P2
2022/09/18 00:01:10;;;;;;;5.22;5.03;;;;;;;;;;5032977;28;20036;-72
2022/09/18 00:03:36;;;;;;;5.45;5.25;;;;;;;;;;5036772;28;20057;-71
2022/09/18 00:06:10;;;;;;;5.35;5.15;;;;;;;;;;5015008;28;20083;-71
2022/09/18 00:08:37;;;;;;;5.30;5.10;;;;;;;;;;5034978;28;20248;-71
2022/09/18 00:11:05;;;;;;;5.35;5.15;;;;;;;;;;5035010;28;20072;-71
2022/09/18 00:13:32;;;;;;;5.30;5.10;;;;;;;;;;5037262;28;20029;-71
2022/09/18 00:15:57;;;;;;;5.38;5.18;;;;;;;;;;5038052;28;20119;-71
2022/09/18 00:18:23;;;;;;;5.30;5.10;;;;;;;;;;5038423;28;20206;-71
2022/09/18 00:20:49;;;;;;;4.93;4.72;;;;;;;;;;5032697;28;20621;-72
2022/09/18 00:23:14;;;;;;;5.15;4.95;;;;;;;;;;5037836;28;20033;-70
2022/09/18 00:25:40;;;;;;;5.45;5.25;;;;;;;;;;5040139;28;20125;-72
2022/09/18 00:28:06;;;;;;;5.22;5.03;;;;;;;;;;5032700;28;20164;-72
2022/09/18 00:30:32;;;;;;;5.30;5.10;;;;;;;;;;5033445;28;20037;-72
2022/09/18 00:32:57;;;;;;;5.47;5.28;;;;;;;;;;5034398;28;20037;-73
2022/09/18 00:35:23;;;;;;;5.18;4.97;;;;;;;;;;5040736;28;20048;-71
2022/09/18 00:37:48;;;;;;;5.03;4.82;;;;;;;;;;5037097;28;20024;-71
2022/09/18 00:40:15;;;;;;;5.10;4.90;;;;;;;;;;5040747;28;20057;-72
2022/09/18 00:42:41;;;;;;;4.88;4.68;;;;;;;;;;5033084;28;20048;-70
2022/09/18 00:45:09;;;;;;;5.10;4.90;;;;;;;;;;5022773;28;20033;-70
2022/09/18 00:47:43;;;;;;;5.50;5.30;;;;;;;;;;5037294;28;20040;-72
2022/09/18 00:50:13;;;;;;;5.18;4.97;;;;;;;;;;5035721;28;20037;-71
2022/09/18 00:52:51;;;;;;;5.38;5.18;;;;;;;;;;5036407;28;20133;-70
2022/09/18 00:55:22;;;;;;;5.20;5.00;;;;;;;;;;5036883;28;20033;-72
2022/09/18 00:57:53;;;;;;;4.97;4.78;;;;;;;;;;5009825;28;20133;-72
2022/09/18 01:00:19;;;;;;;5.38;5.18;;;;;;;;;;5034439;28;20411;-72
2022/09/18 01:02:47;;;;;;;5.28;5.07;;;;;;;;;;5035908;28;20083;-72
2022/09/18 01:05:17;;;;;;;5.30;5.10;;;;;;;;;;5031064;28;20034;-72
2022/09/18 01:08:03;;;;;;;5.10;4.90;;;;;;;;;;5034772;28;20029;-72
2022/09/18 01:10:45;;;;;;;5.20;5.00;;;;;;;;;;5019169;28;20055;-72
2022/09/18 01:13:26;;;;;;;4.90;4.70;;;;;;;;;;5035001;28;20143;-71
2022/09/18 01:16:00;;;;;;;5.40;5.20;;;;;;;;;;5020311;28;20402;-71
2022/09/18 01:18:50;;;;;;;5.18;4.97;;;;;;;;;;5018307;28;20049;-71
2022/09/18 01:21:22;;;;;;;5.22;5.03;;;;;;;;;;5019846;28;20065;-72
2022/09/18 01:24:18;;;;;;;5.05;4.85;;;;;;;;;;5015843;28;20458;-72
2022/09/18 01:26:53;;;;;;;4.88;4.68;;;;;;;;;;5020877;28;20031;-71
2022/09/18 01:29:27;;;;;;;5.20;5.00;;;;;;;;;;5017673;28;20041;-71
2022/09/18 01:32:13;;;;;;;5.10;4.90;;;;;;;;;;5037783;28;20032;-72
2022/09/18 01:34:41;;;;;;;5.50;5.30;;;;;;;;;;5022189;28;20029;-71
2022/09/18 01:37:33;;;;;;;5.10;4.90;;;;;;;;;;5016584;28;20041;-72
2022/09/18 01:40:04;;;;;;;5.40;5.20;;;;;;;;;;5015755;28;20315;-72
2022/09/18 01:42:31;;;;;;;5.22;5.03;;;;;;;;;;5016855;28;20029;-72
2022/09/18 01:45:01;;;;;;;5.47;5.28;;;;;;;;;;5017790;28;20509;-72
2022/09/18 01:47:33;;;;;;;5.50;5.30;;;;;;;;;;5022466;28;20037;-72
2022/09/18 01:50:01;;;;;;;5.22;5.03;;;;;;;;;;5010974;28;20029;-71
2022/09/18 01:52:38;;;;;;;5.20;5.00;;;;;;;;;;5024064;28;20751;-71
2022/09/18 01:55:11;;;;;;;5.00;4.80;;;;;;;;;;5019055;28;20037;-71
2022/09/18 01:57:49;;;;;;;5.20;5.00;;;;;;;;;;5020870;28;20033;-71
2022/09/18 02:00:16;;;;;;;4.93;4.72;;;;;;;;;;5013190;28;20029;-73
2022/09/18 02:03:00;;;;;;;5.28;5.07;;;;;;;;;;5034299;28;20040;-72
2022/09/18 02:05:38;;;;;;;4.78;4.57;;;;;;;;;;5035032;28;20784;-71
2022/09/18 02:08:22;;;;;;;5.00;4.80;;;;;;;;;;5017147;28;20044;-72
2022/09/18 02:10:59;;;;;;;4.80;4.60;;;;;;;;;;5035431;28;20087;-72
2022/09/18 02:13:33;;;;;;;5.00;4.80;;;;;;;;;;5002019;28;20632;-71
2022/09/18 02:16:04;;;;;;;4.97;4.78;;;;;;;;;;5011110;28;20033;-71
2022/09/18 02:18:37;;;;;;;5.20;5.00;;;;;;;;;;5019763;28;20025;-72
2022/09/18 02:21:09;;;;;;;5.07;4.88;;;;;;;;;;5032218;28;20139;-72
2022/09/18 02:23:38;;;;;;;5.20;5.00;;;;;;;;;;5038903;28;20510;-71
2022/09/18 02:26:07;;;;;;;4.90;4.70;;;;;;;;;;5019967;28;20029;-72
2022/09/18 02:28:33;;;;;;;5.13;4.93;;;;;;;;;;5043967;28;20040;-72
2022/09/18 02:31:00;;;;;;;4.95;4.75;;;;;;;;;;5036733;28;20050;-71
2022/09/18 02:33:27;;;;;;;5.00;4.80;;;;;;;;;;5018922;28;20033;-71
2022/09/18 02:36:30;;;;;;;5.18;4.97;;;;;;;;;;5039087;28;20034;-71
2022/09/18 02:39:24;;;;;;;4.97;4.78;;;;;;;;;;4990986;28;20504;-72
2022/09/18 02:41:52;;;;;;;5.38;5.18;;;;;;;;;;5035202;28;20029;-71
2022/09/18 02:44:59;;;;;;;4.90;4.70;;;;;;;;;;5032454;28;20065;-71
2022/09/18 02:47:51;;;;;;;5.05;4.85;;;;;;;;;;5032567;28;20489;-72
2022/09/18 02:50:32;;;;;;;5.22;5.03;;;;;;;;;;5018569;28;20515;-72
2022/09/18 02:53:02;;;;;;;4.65;4.45;;;;;;;;;;5019020;28;20476;-72
2022/09/18 02:55:40;;;;;;;5.10;4.90;;;;;;;;;;5013033;28;20059;-72
2022/09/18 02:58:15;;;;;;;4.82;4.63;;;;;;;;;;5017212;28;20033;-71
2022/09/18 03:00:47;;;;;;;4.97;4.78;;;;;;;;;;5023552;28;20033;-71
2022/09/18 03:03:16;;;;;;;5.10;4.90;;;;;;;;;;5019353;28;20260;-72
2022/09/18 03:05:52;;;;;;;5.20;5.00;;;;;;;;;;5008736;28;20086;-71
2022/09/18 03:08:18;;;;;;;5.20;5.00;;;;;;;;;;5027061;28;20033;-72
2022/09/18 03:10:43;;;;;;;4.90;4.70;;;;;;;;;;5041235;28;20037;-71
2022/09/18 03:13:11;;;;;;;5.28;5.07;;;;;;;;;;5016873;28;20038;-72
2022/09/18 03:15:36;;;;;;;5.00;4.80;;;;;;;;;;5025673;28;20090;-71
2022/09/18 03:18:02;;;;;;;4.97;4.78;;;;;;;;;;5036346;28;20041;-72
2022/09/18 03:20:28;;;;;;;4.95;4.75;;;;;;;;;;5040646;28;20029;-73
2022/09/18 03:22:53;;;;;;;4.88;4.68;;;;;;;;;;5022703;28;20040;-72
2022/09/18 03:25:19;;;;;;;5.03;4.82;;;;;;;;;;5039345;28;20733;-71
2022/09/18 03:27:44;;;;;;;4.90;4.70;;;;;;;;;;5040206;28;20029;-71
2022/09/18 03:30:15;;;;;;;5.20;5.00;;;;;;;;;;5029400;28;20033;-74
2022/09/18 03:32:41;;;;;;;4.57;4.38;;;;;;;;;;5018510;28;20555;-72
2022/09/18 03:35:08;;;;;;;5.30;5.10;;;;;;;;;;5024143;28;20033;-73
2022/09/18 03:37:34;;;;;;;5.30;5.10;;;;;;;;;;5046032;28;20029;-72
2022/09/18 03:40:03;;;;;;;5.20;5.00;;;;;;;;;;5008051;28;20103;-71
2022/09/18 03:42:28;;;;;;;5.03;4.82;;;;;;;;;;5020178;28;20033;-71
2022/09/18 03:44:55;;;;;;;4.93;4.72;;;;;;;;;;5039840;28;20044;-71
2022/09/18 03:47:26;;;;;;;4.85;4.65;;;;;;;;;;5042925;28;20120;-71
2022/09/18 03:49:52;;;;;;;5.13;4.93;;;;;;;;;;5022181;28;20453;-71
2022/09/18 03:52:19;;;;;;;5.10;4.90;;;;;;;;;;5022941;28;20060;-72
2022/09/18 03:54:59;;;;;;;5.20;5.00;;;;;;;;;;5033564;28;20082;-73
2022/09/18 03:57:45;;;;;;;5.03;4.82;;;;;;;;;;5046071;28;20033;-72
2022/09/18 04:00:26;;;;;;;5.18;4.97;;;;;;;;;;5018125;28;20041;-71
2022/09/18 04:02:57;;;;;;;5.05;4.85;;;;;;;;;;5035793;28;20033;-73
2022/09/18 04:05:55;;;;;;;5.40;5.20;;;;;;;;;;5003394;28;20048;-71
2022/09/18 04:08:44;;;;;;;5.30;5.10;;;;;;;;;;5025278;28;20040;-73
2022/09/18 04:11:23;;;;;;;5.35;5.15;;;;;;;;;;5019115;28;20599;-71
2022/09/18 04:13:49;;;;;;;5.30;5.10;;;;;;;;;;5038084;28;20093;-72
2022/09/18 04:16:16;;;;;;;5.10;4.90;;;;;;;;;;5039278;28;20087;-72
2022/09/18 04:18:42;;;;;;;5.10;4.90;;;;;;;;;;5042517;28;20032;-72
2022/09/18 04:21:08;;;;;;;5.30;5.10;;;;;;;;;;5019064;28;20032;-72
2022/09/18 04:23:34;;;;;;;5.20;5.00;;;;;;;;;;5025607;28;20026;-71
2022/09/18 04:26:02;;;;;;;5.07;4.88;;;;;;;;;;5035831;28;20040;-71
2022/09/18 04:28:29;;;;;;;4.80;4.60;;;;;;;;;;5020511;28;20520;-71
2022/09/18 04:30:56;;;;;;;4.80;4.60;;;;;;;;;;5031637;28;20037;-73
2022/09/18 04:33:22;;;;;;;5.10;4.90;;;;;;;;;;5028363;28;20511;-71
2022/09/18 04:35:48;;;;;;;4.97;4.78;;;;;;;;;;5018790;28;20131;-71
2022/09/18 04:38:13;;;;;;;5.13;4.93;;;;;;;;;;5019074;28;20040;-72
2022/09/18 04:40:39;;;;;;;5.03;4.82;;;;;;;;;;5021564;28;20128;-72
2022/09/18 04:43:05;;;;;;;4.97;4.78;;;;;;;;;;5041115;28;20112;-73
2022/09/18 04:45:32;;;;;;;5.03;4.82;;;;;;;;;;5019942;28;20065;-71
2022/09/18 04:47:58;;;;;;;5.10;4.90;;;;;;;;;;5017529;28;20075;-72
2022/09/18 04:50:25;;;;;;;4.93;4.72;;;;;;;;;;5034683;28;20095;-71
2022/09/18 04:53:10;;;;;;;4.85;4.65;;;;;;;;;;5011454;28;20061;-73
2022/09/18 04:55:35;;;;;;;5.03;4.82;;;;;;;;;;5036604;28;20135;-72
2022/09/18 04:58:01;;;;;;;4.90;4.70;;;;;;;;;;5021613;28;20041;-72
2022/09/18 05:00:27;;;;;;;4.97;4.78;;;;;;;;;;5017717;28;20048;-72
2022/09/18 05:02:56;;;;;;;5.20;5.00;;;;;;;;;;5018266;28;20040;-73
2022/09/18 05:05:24;;;;;;;5.40;5.20;;;;;;;;;;5035212;28;20043;-71
2022/09/18 05:07:50;;;;;;;4.88;4.68;;;;;;;;;;5017157;28;20041;-72
2022/09/18 05:10:19;;;;;;;5.17;4.97;;;;;;;;;;5022643;28;20663;-70
2022/09/18 05:12:45;;;;;;;5.10;4.90;;;;;;;;;;5024150;28;20037;-72
2022/09/18 05:15:11;;;;;;;5.10;4.90;;;;;;;;;;5039314;28;20036;-74
2022/09/18 05:17:40;;;;;;;5.07;4.88;;;;;;;;;;5017894;28;20029;-72
2022/09/18 05:20:09;;;;;;;5.40;5.20;;;;;;;;;;5021101;28;20025;-73
2022/09/18 05:22:37;;;;;;;5.20;5.00;;;;;;;;;;5036526;28;20424;-73
2022/09/18 05:25:08;;;;;;;4.95;4.75;;;;;;;;;;5030546;28;20026;-71
2022/09/18 05:27:34;;;;;;;5.07;4.88;;;;;;;;;;5036840;28;20042;-73
2022/09/18 05:29:59;;;;;;;5.07;4.88;;;;;;;;;;5021636;28;20033;-73
2022/09/18 05:32:53;;;;;;;4.97;4.78;;;;;;;;;;5038424;28;20040;-71
2022/09/18 05:35:19;;;;;;;5.18;4.97;;;;;;;;;;5016692;28;20057;-73
2022/09/18 05:37:44;;;;;;;5.80;5.50;;;;;;;;;;5037013;28;20677;-71
2022/09/18 05:40:10;;;;;;;5.38;5.18;;;;;;;;;;5037772;28;20044;-71
2022/09/18 05:42:35;;;;;;;5.50;5.30;;;;;;;;;;5037122;28;20029;-71
2022/09/18 05:45:03;;;;;;;5.25;5.05;;;;;;;;;;5011977;28;20037;-72
2022/09/18 05:47:31;;;;;;;5.50;5.30;;;;;;;;;;5022343;28;20033;-72
2022/09/18 05:49:58;;;;;;;5.03;4.82;;;;;;;;;;5018057;28;20082;-72
2022/09/18 05:52:24;;;;;;;5.00;4.80;;;;;;;;;;5020005;28;20642;-71
2022/09/18 05:54:51;;;;;;;5.03;4.82;;;;;;;;;;5018999;28;21593;-72
2022/09/18 05:57:16;;;;;;;5.03;4.82;;;;;;;;;;5022999;28;20041;-72
2022/09/18 05:59:47;;;;;;;5.00;4.80;;;;;;;;;;5033352;28;20041;-73
2022/09/18 06:02:13;;;;;;;5.00;4.80;;;;;;;;;;5033834;28;20033;-71
2022/09/18 06:04:57;;;;;;;5.20;5.00;;;;;;;;;;5033405;28;20068;-72
2022/09/18 06:07:22;;;;;;;5.13;4.93;;;;;;;;;;5020336;28;20170;-71
2022/09/18 06:09:49;;;;;;;5.10;4.90;;;;;;;;;;5038031;28;20061;-72
2022/09/18 06:12:15;;;;;;;5.40;5.20;;;;;;;;;;5040443;28;20079;-72
2022/09/18 06:14:42;;;;;;;5.45;5.25;;;;;;;;;;5037625;28;20036;-71
2022/09/18 06:17:07;;;;;;;5.30;5.10;;;;;;;;;;5039201;28;20029;-72
2022/09/18 06:19:34;;;;;;;5.30;5.10;;;;;;;;;;5035975;28;20036;-73
2022/09/18 06:21:59;;;;;;;5.15;4.95;;;;;;;;;;5041086;28;20037;-73
2022/09/18 06:24:25;;;;;;;5.22;5.03;;;;;;;;;;5023899;28;20032;-72
2022/09/18 06:27:20;;;;;;;5.60;5.40;;;;;;;;;;5000617;28;20728;-73
2022/09/18 06:29:45;;;;;;;5.20;5.00;;;;;;;;;;5040050;28;20041;-72
2022/09/18 06:32:14;;;;;;;5.40;5.20;;;;;;;;;;5027100;28;20037;-73
2022/09/18 06:34:41;;;;;;;5.40;5.20;;;;;;;;;;5022692;28;20496;-72
2022/09/18 06:37:10;;;;;;;5.28;5.07;;;;;;;;;;5024665;28;20037;-74
2022/09/18 06:39:42;;;;;;;5.38;5.18;;;;;;;;;;5043340;28;20033;-73
2022/09/18 06:42:14;;;;;;;5.40;5.20;;;;;;;;;;5031752;28;20034;-72
2022/09/18 06:45:06;;;;;;;5.72;5.45;;;;;;;;;;5037218;28;20123;-72
2022/09/18 06:47:32;;;;;;;5.30;5.10;;;;;;;;;;5025995;28;20037;-71
2022/09/18 06:49:58;;;;;;;5.95;5.65;;;;;;;;;;5023063;28;20029;-72
2022/09/18 06:52:26;;;;;;;5.82;5.53;;;;;;;;;;5021760;28;20459;-74
2022/09/18 06:54:54;;;;;;;5.70;5.47;;;;;;;;;;5025687;28;20033;-72
2022/09/18 06:57:30;;;;;;;5.90;5.60;;;;;;;;;;5040551;28;20037;-71
2022/09/18 06:59:55;;;;;;;5.75;5.50;;;;;;;;;;5043597;28;20083;-72
2022/09/18 07:02:21;;;;;;;5.75;5.47;;;;;;;;;;5035395;28;20040;-72
2022/09/18 07:04:57;;;;;;;5.90;5.60;;;;;;;;;;5043833;28;20045;-73
2022/09/18 07:07:23;;;;;;;5.97;5.68;;;;;;;;;;5042701;28;20411;-73
2022/09/18 07:09:50;;;;;;;6.05;5.75;;;;;;;;;;5013284;28;20068;-72
2022/09/18 07:12:37;;;;;;;6.35;6.05;;;;;;;;;;5033121;28;20045;-72
2022/09/18 07:15:05;;;;;;;6.22;5.93;;;;;;;;;;5037031;28;20037;-73
2022/09/18 07:17:31;;;;;;;6.15;5.85;;;;;;;;;;5042185;28;20041;-73
2022/09/18 07:19:57;;;;;;;6.00;5.70;;;;;;;;;;5024355;28;20033;-72
2022/09/18 07:22:33;;;;;;;6.30;6.00;;;;;;;;;;5016091;28;20026;-74
2022/09/18 07:24:58;;;;;;;5.93;5.63;;;;;;;;;;5028804;28;20035;-72
2022/09/18 07:27:24;;;;;;;6.35;6.05;;;;;;;;;;5032091;28;20124;-72
2022/09/18 07:29:50;;;;;;;6.55;6.25;;;;;;;;;;5033720;28;20068;-73
2022/09/18 07:32:19;;;;;;;5.93;5.63;;;;;;;;;;5021040;28;20037;-72
2022/09/18 07:34:44;;;;;;;6.07;5.78;;;;;;;;;;5015059;28;20088;-72
2022/09/18 07:37:14;;;;;;;5.60;5.40;;;;;;;;;;5037908;28;20037;-73
2022/09/18 07:39:44;;;;;;;5.90;5.60;;;;;;;;;;5025954;28;20029;-73
2022/09/18 07:42:42;;;;;;;6.22;5.93;;;;;;;;;;5024074;28;20048;-71
2022/09/18 07:45:10;;;;;;;6.07;5.78;;;;;;;;;;5028496;28;20038;-72
2022/09/18 07:47:35;;;;;;;6.10;5.80;;;;;;;;;;5029609;28;20037;-72
2022/09/18 07:50:03;;;;;;;6.47;6.18;;;;;;;;;;5024306;28;20123;-72
2022/09/18 07:52:30;;;;;;;6.00;5.70;;;;;;;;;;5032427;28;20033;-71
2022/09/18 07:54:55;;;;;;;5.93;5.63;;;;;;;;;;5023751;28;20128;-72
2022/09/18 07:57:28;;;;;;;6.03;5.72;;;;;;;;;;5029618;28;20396;-72
2022/09/18 08:00:11;;;;;;;6.10;5.80;;;;;;;;;;5036020;28;20106;-73
2022/09/18 08:02:42;;;;;;;5.97;5.68;;;;;;;;;;5040328;28;20089;-71
2022/09/18 08:05:12;;;;;;;5.88;5.57;;;;;;;;;;5020059;28;20112;-72
2022/09/18 08:08:00;;;;;;;6.15;5.85;;;;;;;;;;5037162;28;20086;-72
2022/09/18 08:10:34;;;;;;;6.10;5.80;;;;;;;;;;5036015;28;20084;-72
2022/09/18 08:13:32;;;;;;;6.20;5.90;;;;;;;;;;5035812;28;20033;-72
2022/09/18 08:16:09;;;;;;;5.97;5.68;;;;;;;;;;5023490;28;20040;-71
2022/09/18 08:19:06;;;;;;;5.95;5.65;;;;;;;;;;5011800;28;20048;-72
2022/09/18 08:21:52;;;;;;;6.22;5.93;;;;;;;;;;5030595;28;20099;-72
2022/09/18 08:24:17;;;;;;;5.70;5.45;;;;;;;;;;5037100;28;20036;-72
2022/09/18 08:26:44;;;;;;;6.10;5.80;;;;;;;;;;5024912;28;20111;-73
2022/09/18 08:29:17;;;;;;;5.88;5.57;;;;;;;;;;4996747;28;20045;-71
2022/09/18 08:31:45;;;;;;;5.93;5.63;;;;;;;;;;5025707;28;20492;-70
2022/09/18 08:34:11;;;;;;;6.03;5.72;;;;;;;;;;5038799;28;20044;-70
2022/09/18 08:36:37;;;;;;;6.05;5.75;;;;;;;;;;5040360;28;20111;-70
2022/09/18 08:39:12;;;;;;;5.78;5.50;;;;;;;;;;5020447;28;20516;-70
2022/09/18 08:42:08;;;;;;;5.60;5.40;;;;;;;;;;5034764;28;20105;-71
2022/09/18 08:45:07;;;;;;;5.30;5.10;;;;;;;;;;5021484;28;20457;-70
2022/09/18 08:47:45;;;;;;;5.05;4.85;;;;;;;;;;5009671;28;20080;-71
2022/09/18 08:50:19;;;;;;;5.60;5.40;;;;;;;;;;5020583;28;20037;-71
2022/09/18 08:52:49;;;;;;;5.50;5.30;;;;;;;;;;5039270;28;20500;-71
2022/09/18 08:55:32;;;;;;;5.40;5.20;;;;;;;;;;5024829;28;20041;-71
2022/09/18 08:58:15;;;;;;;5.60;5.40;;;;;;;;;;5035104;28;20029;-71
2022/09/18 09:00:47;;;;;;;5.53;5.32;;;;;;;;;;5027105;28;20040;-71
2022/09/18 09:03:32;;;;;;;5.28;5.07;;;;;;;;;;5030934;28;20033;-71
2022/09/18 09:06:02;;;;;;;5.38;5.18;;;;;;;;;;5032389;28;20136;-71
2022/09/18 09:08:49;;;;;;;5.50;5.30;;;;;;;;;;5036127;28;20080;-71
2022/09/18 09:11:28;;;;;;;5.60;5.40;;;;;;;;;;5017874;28;20049;-71
2022/09/18 09:14:09;;;;;;;5.47;5.28;;;;;;;;;;5005549;28;20041;-71
2022/09/18 09:16:46;;;;;;;5.15;4.95;;;;;;;;;;5034831;28;20057;-71
2022/09/18 09:19:24;;;;;;;5.30;5.10;;;;;;;;;;5036036;28;20104;-71
2022/09/18 09:22:01;;;;;;;5.25;5.05;;;;;;;;;;5032519;28;20099;-71
2022/09/18 09:24:26;;;;;;;6.13;5.82;;;;;;;;;;5028567;28;20116;-72
2022/09/18 09:27:36;;;;;;;5.40;5.20;;;;;;;;;;5033448;28;20037;-71
2022/09/18 09:30:21;;;;;;;6.15;5.85;;;;;;;;;;5031586;28;20106;-70
2022/09/18 09:33:27;;;;;;;5.30;5.10;;;;;;;;;;5011487;28;20409;-71
2022/09/18 09:36:14;;;;;;;5.60;5.30;;;;;;;;;;5038844;28;20033;-72
2022/09/18 09:38:52;;;;;;;5.47;5.28;;;;;;;;;;5022294;28;20029;-71
2022/09/18 09:41:35;;;;;;;5.15;4.95;;;;;;;;;;5036675;28;20044;-72
2022/09/18 09:44:23;;;;;;;5.45;5.25;;;;;;;;;;5030915;28;20056;-72
2022/09/18 09:47:07;;;;;;;5.20;5.00;;;;;;;;;;5023702;28;20044;-71
2022/09/18 09:49:45;;;;;;;5.20;5.00;;;;;;;;;;5019325;28;20049;-72
2022/09/18 09:52:22;;;;;;;5.38;5.18;;;;;;;;;;5033855;28;20120;-72
2022/09/18 09:54:55;;;;;;;5.47;5.27;;;;;;;;;;5038867;28;20119;-71
2022/09/18 09:57:28;;;;;;;5.20;5.00;;;;;;;;;;5035630;28;20049;-71
2022/09/18 10:00:11;;;;;;;5.20;5.00;;;;;;;;;;5021249;28;20049;-72
2022/09/18 10:03:24;;;;;;;5.50;5.30;;;;;;;;;;5024186;28;20040;-72
2022/09/18 10:06:10;;;;;;;5.32;5.13;;;;;;;;;;5034170;28;20565;-72
2022/09/18 10:09:06;;;;;;;5.80;5.50;;;;;;;;;;5020020;28;20056;-73
2022/09/18 10:11:36;;;;;;;6.57;6.28;;;;;;;;;;5001328;28;20385;-71
2022/09/18 10:14:10;;;;;;;5.55;5.35;;;;;;;;;;5033583;28;20063;-72
2022/09/18 10:16:41;;;;;;;5.70;5.45;;;;;;;;;;5025580;28;20029;-72
2022/09/18 10:19:15;;;;;;;5.43;5.22;;;;;;;;;;5023984;28;20037;-73
2022/09/18 10:21:41;;;;;;;5.60;5.40;;;;;;;;;;5014319;28;20029;-71
2022/09/18 10:24:26;;;;;;;5.45;5.25;;;;;;;;;;5017535;28;20041;-72
2022/09/18 10:26:58;;;;;;;5.82;5.53;;;;;;;;;;5026872;28;20053;-73
2022/09/18 10:29:24;;;;;;;5.45;5.25;;;;;;;;;;5027326;28;20729;-71
2022/09/18 10:31:57;;;;;;;5.30;5.10;;;;;;;;;;5018321;28;20045;-71
2022/09/18 10:34:44;;;;;;;5.43;5.22;;;;;;;;;;5018859;28;20052;-72
2022/09/18 10:37:27;;;;;;;5.90;5.60;;;;;;;;;;5009735;28;20037;-73
2022/09/18 10:39:58;;;;;;;5.40;5.20;;;;;;;;;;5015313;28;20040;-72
2022/09/18 10:42:30;;;;;;;5.28;5.07;;;;;;;;;;5015367;28;20029;-71
2022/09/18 10:45:24;;;;;;;5.93;5.63;;;;;;;;;;5038972;28;20043;-73
2022/09/18 10:48:06;;;;;;;6.00;5.70;;;;;;;;;;5015335;28;20040;-73
2022/09/18 10:50:33;;;;;;;6.63;6.32;;;;;;;;;;5011083;28;20050;-73
2022/09/18 10:53:20;;;;;;;6.75;6.45;;;;;;;;;;5037720;28;20037;-71
2022/09/18 10:55:49;;;;;;;6.53;6.22;;;;;;;;;;5022721;28;20405;-73
2022/09/18 10:58:25;;;;;;;6.22;5.93;;;;;;;;;;5028887;28;20040;-73
2022/09/18 11:01:00;;;;;;;5.93;5.63;;;;;;;;;;5025928;28;20067;-72
2022/09/18 11:03:33;;;;;;;6.20;5.90;;;;;;;;;;5024356;28;20076;-72
2022/09/18 11:06:05;;;;;;;6.18;5.88;;;;;;;;;;5025528;28;20388;-73
2022/09/18 11:08:36;;;;;;;6.30;6.00;;;;;;;;;;5038417;28;20044;-73
2022/09/18 11:11:07;;;;;;;5.40;5.20;;;;;;;;;;5008683;28;20461;-72
2022/09/18 11:13:43;;;;;;;5.70;5.40;;;;;;;;;;5030131;28;20037;-72
2022/09/18 11:16:21;;;;;;;5.78;5.47;;;;;;;;;;5016443;28;20033;-72
2022/09/18 11:19:19;;;;;;;5.63;5.40;;;;;;;;;;5013848;28;20041;-73
2022/09/18 11:21:47;;;;;;;6.10;5.80;;;;;;;;;;5025071;28;20539;-73
2022/09/18 11:24:27;;;;;;;5.80;5.50;;;;;;;;;;5010016;28;20042;-73
2022/09/18 11:27:17;;;;;;;5.40;5.20;;;;;;;;;;5031247;28;20087;-72
2022/09/18 11:29:43;;;;;;;5.90;5.60;;;;;;;;;;5013141;28;20094;-72
2022/09/18 11:32:29;;;;;;;;;;;;;;;;;;5029730;28;20048;-72
2022/09/18 11:35:03;;;;;;;5.63;5.43;;;;;;;;;;5039899;28;19917;-74
2022/09/18 11:37:42;;;;;;;5.82;5.53;;;;;;;;;;5019774;28;20047;-74
2022/09/18 11:40:17;;;;;;;5.75;5.47;;;;;;;;;;5022386;28;20112;-74
2022/09/18 11:42:49;;;;;;;5.53;5.32;;;;;;;;;;5034291;28;20064;-73
2022/09/18 11:45:50;;;;;;;5.95;5.65;;;;;;;;;;5027619;28;20055;-73
2022/09/18 11:48:48;;;;;;;6.10;5.80;;;;;;;;;;5042319;28;20037;-72
2022/09/18 11:51:34;;;;;;;6.07;5.78;;;;;;;;;;5024030;28;20117;-74
2022/09/18 11:54:07;;;;;;;5.90;5.60;;;;;;;;;;5012465;28;20114;-73
2022/09/18 11:56:39;;;;;;;6.20;5.90;;;;;;;;;;5005438;28;20043;-74
2022/09/18 11:59:19;;;;;;;6.13;5.82;;;;;;;;;;5013180;28;20037;-73
2022/09/18 12:02:01;;;;;;;5.75;5.50;;;;;;;;;;5030249;28;20029;-73
2022/09/18 12:04:40;;;;;;;6.10;5.80;;;;;;;;;;5023359;28;20041;-73
2022/09/18 12:07:55;;;;;;;6.40;6.00;;;;;;;;;;5018781;28;20041;-73
2022/09/18 12:10:47;;;;;;;5.90;5.60;;;;;;;;;;5000002;28;20119;-74
2022/09/18 12:13:35;;;;;;;5.30;5.10;;;;;;;;;;5007715;28;20163;-73
2022/09/18 12:16:14;;;;;;;5.47;5.28;;;;;;;;;;5032246;28;20040;-74
2022/09/18 12:19:07;;;;;;;5.57;5.38;;;;;;;;;;5016041;28;20041;-72
2022/09/18 12:21:56;;;;;;;5.65;5.45;;;;;;;;;;5038185;28;20061;-74
2022/09/18 12:24:21;;;;;;;5.60;5.40;;;;;;;;;;5017195;28;20049;-74
2022/09/18 12:27:09;;;;;;;5.57;5.38;;;;;;;;;;5025049;28;20586;-73
2022/09/18 12:30:13;;;;;;;5.60;5.40;;;;;;;;;;5017408;28;20072;-74
2022/09/18 12:32:54;;;;;;;5.57;5.38;;;;;;;;;;5016951;28;20229;-73
2022/09/18 12:35:42;;;;;;;5.50;5.30;;;;;;;;;;5034463;28;20095;-74
2022/09/18 12:38:14;;;;;;;5.37;5.17;;;;;;;;;;5032287;28;20034;-73
2022/09/18 12:41:00;;;;;;;5.65;5.43;;;;;;;;;;5012392;28;20103;-73
2022/09/18 12:43:40;;;;;;;5.93;5.63;;;;;;;;;;5035611;28;20040;-74
2022/09/18 12:46:35;;;;;;;5.53;5.32;;;;;;;;;;5023527;28;20052;-73
2022/09/18 12:49:25;;;;;;;6.05;5.75;;;;;;;;;;5028196;28;20072;-73
2022/09/18 12:52:33;;;;;;;5.95;5.65;;;;;;;;;;5035275;28;20040;-73
2022/09/18 12:55:20;;;;;;;5.95;5.65;;;;;;;;;;4908782;29;20048;-73
2022/09/18 12:58:08;;;;;;;5.90;5.60;;;;;;;;;;5031958;28;20060;-74
2022/09/18 13:00:37;;;;;;;5.82;5.53;;;;;;;;;;5024848;28;20037;-73
2022/09/18 13:03:18;;;;;;;;;;;;;;;;;;5035115;28;20595;-73
2022/09/18 13:06:13;;;;;;;5.82;5.53;;;;;;;;;;5034387;28;19920;-72
2022/09/18 13:08:47;;;;;;;5.80;5.50;;;;;;;;;;5034504;28;20037;-72
2022/09/18 13:11:29;;;;;;;5.22;5.03;;;;;;;;;;5034153;28;20032;-73
2022/09/18 13:14:26;;;;;;;5.40;5.20;;;;;;;;;;5039522;28;20037;-73
2022/09/18 13:17:00;;;;;;;5.38;5.18;;;;;;;;;;5017677;28;20041;-72
2022/09/18 13:19:34;;;;;;;5.85;5.57;;;;;;;;;;5036717;28;20033;-74
2022/09/18 13:22:05;;;;;;;5.75;5.45;;;;;;;;;;5036012;28;20045;-74
2022/09/18 13:24:34;;;;;;;5.60;5.40;;;;;;;;;;5026104;28;20037;-71
2022/09/18 13:27:08;;;;;;;5.43;5.22;;;;;;;;;;5039741;28;20122;-74
2022/09/18 13:29:52;;;;;;;5.20;5.00;;;;;;;;;;5038753;28;20041;-72
2022/09/18 13:32:36;;;;;;;5.32;5.13;;;;;;;;;;5018067;28;20041;-73
2022/09/18 13:35:18;;;;;;;4.97;4.78;;;;;;;;;;5037541;28;20040;-73
2022/09/18 13:37:44;;;;;;;4.97;4.78;;;;;;;;;;5040979;28;20052;-72
2022/09/18 13:40:28;;;;;;;5.50;5.30;;;;;;;;;;5027667;28;20190;-73
2022/09/18 13:42:54;;;;;;;5.35;5.15;;;;;;;;;;5034616;28;20039;-72
2022/09/18 13:45:26;;;;;;;5.57;5.28;;;;;;;;;;5043208;28;20041;-74
2022/09/18 13:48:03;;;;;;;5.47;5.28;;;;;;;;;;5038417;28;20040;-71
2022/09/18 13:50:32;;;;;;;5.32;5.13;;;;;;;;;;5032434;28;20045;-72
2022/09/18 13:53:00;;;;;;;5.25;5.05;;;;;;;;;;5040100;28;20046;-73
2022/09/18 13:55:26;;;;;;;5.35;5.15;;;;;;;;;;5041959;28;20480;-72
2022/09/18 13:58:29;;;;;;;5.90;5.60;;;;;;;;;;5031050;28;20488;-71
2022/09/18 14:01:18;;;;;;;5.55;5.35;;;;;;;;;;5038065;28;20044;-72
2022/09/18 14:03:43;;;;;;;5.57;5.38;;;;;;;;;;5039287;28;20037;-71
2022/09/18 14:06:41;;;;;;;5.65;5.40;;;;;;;;;;5037623;28;20035;-73
2022/09/18 14:09:46;;;;;;;5.53;5.32;;;;;;;;;;5030240;28;20073;-71
2022/09/18 14:12:13;;;;;;;5.40;5.20;;;;;;;;;;5032166;28;20103;-72
2022/09/18 14:14:39;;;;;;;5.38;5.18;;;;;;;;;;5038517;28;20987;-72
2022/09/18 14:17:15;;;;;;;5.38;5.18;;;;;;;;;;5041492;28;20083;-72
2022/09/18 14:19:44;;;;;;;5.85;5.55;;;;;;;;;;5036238;28;20049;-72
2022/09/18 14:22:28;;;;;;;5.40;5.20;;;;;;;;;;5036995;28;20495;-72
2022/09/18 14:24:59;;;;;;;5.50;5.30;;;;;;;;;;5037902;28;20051;-74
2022/09/18 14:27:28;;;;;;;5.60;5.40;;;;;;;;;;5036146;28;20053;-73
2022/09/18 14:29:56;;;;;;;5.50;5.30;;;;;;;;;;5038103;28;20124;-73
2022/09/18 14:32:24;;;;;;;5.80;5.50;;;;;;;;;;5026602;28;20047;-73
2022/09/18 14:34:53;;;;;;;5.90;5.60;;;;;;;;;;5036422;28;20033;-72
2022/09/18 14:37:23;;;;;;;;;;;;;;;;;;5038895;28;20129;-72
2022/09/18 14:39:50;;;;;;;5.60;5.38;;;;;;;;;;5044458;28;20059;-72
2022/09/18 14:42:31;;;;;;;6.03;5.72;;;;;;;;;;5039355;28;20449;-73
2022/09/18 14:45:07;;;;;;;5.85;5.55;;;;;;;;;;5035526;28;20436;-73
2022/09/18 14:47:34;;;;;;;5.80;5.50;;;;;;;;;;5033101;28;20069;-73
2022/09/18 14:49:59;;;;;;;5.82;5.53;;;;;;;;;;5040874;28;20029;-72
2022/09/18 14:52:30;;;;;;;5.40;5.20;;;;;;;;;;5027744;28;20041;-72
2022/09/18 14:54:58;;;;;;;5.35;5.15;;;;;;;;;;5025280;28;20033;-72
2022/09/18 14:57:32;;;;;;;5.53;5.32;;;;;;;;;;5037734;28;20037;-72
2022/09/18 15:00:00;;;;;;;5.63;5.40;;;;;;;;;;5040412;28;20094;-72
2022/09/18 15:02:31;;;;;;;5.43;5.22;;;;;;;;;;5039410;28;20036;-72
2022/09/18 15:05:00;;;;;;;5.70;5.45;;;;;;;;;;5041749;28;20033;-72
2022/09/18 15:07:26;;;;;;;5.80;5.50;;;;;;;;;;5041784;28;20033;-72
2022/09/18 15:09:54;;;;;;;5.20;5.00;;;;;;;;;;5039540;28;20033;-72
2022/09/18 15:12:23;;;;;;;5.30;5.10;;;;;;;;;;5037990;28;20618;-73
2022/09/18 15:14:49;;;;;;;5.30;5.10;;;;;;;;;;5034199;28;20064;-72
2022/09/18 15:17:21;;;;;;;5.82;5.53;;;;;;;;;;5028757;28;20119;-72
2022/09/18 15:20:20;;;;;;;5.10;4.90;;;;;;;;;;5017999;28;20451;-72
2022/09/18 15:22:47;;;;;;;5.15;4.95;;;;;;;;;;4942206;29;20050;-72
2022/09/18 15:25:22;;;;;;;5.20;5.00;;;;;;;;;;4941824;29;20137;-71
2022/09/18 15:27:49;;;;;;;5.20;5.00;;;;;;;;;;4938562;29;20043;-72